createdAt,value
2018-01-13T00:00:29.840Z,16.70
2018-01-13T00:02:57.393Z,16.40
2018-01-13T00:05:24.962Z,21.00
2018-01-13T00:07:52.514Z,21.30
2018-01-13T00:10:20.050Z,21.80
2018-01-13T00:12:48.377Z,22.00
2018-01-13T00:15:15.916Z,21.40
2018-01-13T00:17:43.437Z,18.80
2018-01-13T00:20:11.165Z,21.00
2018-01-13T00:22:39.606Z,18.48
2018-01-13T00:25:07.231Z,18.40
2018-01-13T00:27:34.766Z,17.50
2018-01-13T00:30:02.290Z,21.00
2018-01-13T00:32:29.829Z,19.37
2018-01-13T00:34:58.123Z,19.03
2018-01-13T00:37:25.673Z,18.43
2018-01-13T00:39:53.969Z,16.40
2018-01-13T00:42:21.517Z,14.80
2018-01-13T00:44:49.808Z,14.00
2018-01-13T00:47:18.113Z,16.90
2018-01-13T00:49:45.639Z,17.97
2018-01-13T00:52:13.964Z,14.77
2018-01-13T00:54:41.478Z,13.60
2018-01-13T00:57:09.762Z,12.40
2018-01-13T00:59:38.069Z,12.90
2018-01-13T01:02:05.625Z,11.25
2018-01-13T01:04:33.169Z,12.23
2018-01-13T01:07:00.704Z,12.00
2018-01-13T01:09:29.018Z,13.18
2018-01-13T01:11:56.554Z,10.23
2018-01-13T01:14:24.864Z,10.32
2018-01-13T01:16:52.390Z,9.48
2018-01-13T01:19:20.696Z,9.25
2018-01-13T01:21:48.226Z,10.60
2018-01-13T01:24:16.543Z,12.13
2018-01-13T01:26:44.064Z,10.85
2018-01-13T01:29:12.354Z,12.77
2018-01-13T01:31:39.900Z,10.63
2018-01-13T01:34:08.193Z,13.60
2018-01-13T01:36:35.742Z,14.27
2018-01-13T01:39:04.034Z,16.25
2018-01-13T01:41:32.339Z,15.48
2018-01-13T01:43:59.857Z,14.25
2018-01-13T01:46:28.178Z,15.77
2018-01-13T01:48:55.705Z,14.05
2018-01-13T01:51:24.028Z,16.65
2018-01-13T01:53:51.582Z,14.98
2018-01-13T01:56:19.135Z,15.73
2018-01-13T01:58:46.656Z,16.35
2018-01-13T02:01:14.944Z,17.60
2018-01-13T02:03:43.253Z,16.65
2018-01-13T02:06:10.778Z,15.93
2018-01-13T02:08:39.086Z,16.70
2018-01-13T02:11:06.657Z,17.37
2018-01-13T02:13:34.193Z,17.42
2018-01-13T02:16:01.722Z,16.70
2018-01-13T02:18:29.266Z,14.87
2018-01-13T02:20:56.806Z,15.20
2018-01-13T02:23:24.349Z,14.05
2018-01-13T02:25:51.866Z,15.45
2018-01-13T02:28:19.413Z,14.48
2018-01-13T02:30:46.942Z,16.55
2018-01-13T02:33:14.460Z,16.00
2018-01-13T02:35:42.770Z,21.12
2018-01-13T02:38:10.285Z,19.15
2018-01-13T02:40:37.825Z,18.12
2018-01-13T02:43:05.341Z,17.35
2018-01-13T02:45:32.881Z,20.85
2018-01-13T02:48:00.397Z,19.95
2018-01-13T02:50:27.934Z,17.20
2018-01-13T02:52:55.457Z,21.27
2018-01-13T02:55:23.001Z,18.85
2018-01-13T02:57:51.293Z,16.65
2018-01-13T03:00:18.910Z,19.25
2018-01-13T03:02:46.434Z,14.90
2018-01-13T03:05:14.727Z,17.40
2018-01-13T03:07:42.265Z,20.08
2018-01-13T03:10:10.588Z,20.95
2018-01-13T03:12:38.156Z,20.08
2018-01-13T03:15:05.685Z,21.00
2018-01-13T03:17:33.237Z,21.08
2018-01-13T03:20:01.530Z,18.92
2018-01-13T03:22:29.069Z,22.02
2018-01-13T03:24:57.365Z,26.00
2018-01-13T03:27:25.164Z,21.75
2018-01-13T03:29:52.725Z,23.17
2018-01-13T03:32:20.259Z,27.90
2018-01-13T03:34:47.807Z,20.60
2018-01-13T03:37:16.092Z,22.50
2018-01-13T03:39:44.414Z,23.85
2018-01-13T03:42:11.976Z,26.33
2018-01-13T03:44:39.518Z,24.15
2018-01-13T03:47:07.046Z,25.60
2018-01-13T03:49:35.370Z,21.02
2018-01-13T03:52:02.900Z,19.23
2018-01-13T03:54:31.214Z,21.90
2018-01-13T03:56:58.741Z,23.33
2018-01-13T03:59:27.026Z,23.62
2018-01-13T04:01:54.573Z,24.63
2018-01-13T04:04:22.899Z,24.37
2018-01-13T04:06:50.445Z,23.60
2018-01-13T04:09:17.973Z,22.35
2018-01-13T04:11:46.304Z,29.95
2018-01-13T04:14:13.830Z,25.00
2018-01-13T04:16:41.374Z,23.83
2018-01-13T04:19:09.666Z,23.12
2018-01-13T04:21:37.969Z,19.83
2018-01-13T04:24:05.497Z,19.48
2018-01-13T04:26:33.821Z,18.17
2018-01-13T04:29:01.381Z,19.40
2018-01-13T04:31:29.150Z,17.45
2018-01-13T04:33:56.676Z,14.07
2018-01-13T04:36:24.985Z,14.23
2018-01-13T04:38:52.534Z,17.05
2018-01-13T04:41:20.114Z,11.43
2018-01-13T04:43:47.659Z,9.88
2018-01-13T04:46:15.186Z,10.15
2018-01-13T04:48:43.490Z,9.20
2018-01-13T04:51:11.023Z,9.32
2018-01-13T04:53:39.332Z,8.82
2018-01-13T04:56:06.853Z,9.35
2018-01-13T04:58:34.399Z,7.20
2018-01-13T05:01:01.934Z,10.05
2018-01-13T05:03:29.472Z,8.60
2018-01-13T05:05:56.989Z,7.68
2018-01-13T05:08:24.505Z,9.50
2018-01-13T05:10:52.042Z,12.55
2018-01-13T05:13:19.569Z,17.80
2018-01-13T05:15:47.116Z,12.82
2018-01-13T05:18:14.646Z,12.40
2018-01-13T05:20:42.188Z,11.43
2018-01-13T05:23:09.718Z,11.27
2018-01-13T05:25:37.261Z,9.70
2018-01-13T05:28:04.789Z,11.30
2018-01-13T05:30:32.329Z,10.10
2018-01-13T05:32:59.852Z,9.87
2018-01-13T05:35:27.396Z,15.45
2018-01-13T05:37:54.925Z,12.77
2018-01-13T05:40:22.465Z,13.20
2018-01-13T05:42:50.065Z,12.63
2018-01-13T05:45:18.309Z,9.30
2018-01-13T05:47:45.853Z,10.57
2018-01-13T05:50:14.142Z,14.00
2018-01-13T05:52:42.445Z,12.93
2018-01-13T05:55:09.969Z,15.47
2018-01-13T05:57:37.514Z,20.10
2018-01-13T06:00:05.034Z,11.50
2018-01-13T06:02:32.553Z,12.30
2018-01-13T06:05:00.086Z,15.70
2018-01-13T06:07:27.598Z,15.47
2018-01-13T06:09:55.898Z,16.37
2018-01-13T06:12:23.414Z,12.97
2018-01-13T06:14:50.960Z,15.77
2018-01-13T06:17:18.481Z,18.00
2018-01-13T06:19:46.024Z,15.20
2018-01-13T06:22:13.546Z,21.13
2018-01-13T06:24:41.069Z,21.00
2018-01-13T06:27:08.607Z,22.57
2018-01-13T06:29:36.135Z,24.27
2018-01-13T06:32:03.674Z,20.00
2018-01-13T06:34:31.193Z,22.87
2018-01-13T06:36:58.738Z,24.50
2018-01-13T06:39:26.271Z,18.43
2018-01-13T06:41:53.806Z,20.60
2018-01-13T06:44:21.332Z,16.60
2018-01-13T06:46:48.878Z,19.57
2018-01-13T06:49:17.192Z,18.13
2018-01-13T06:51:44.733Z,18.17
2018-01-13T06:54:12.259Z,17.73
2018-01-13T06:56:39.802Z,17.33
2018-01-13T06:59:07.320Z,18.07
2018-01-13T07:01:34.841Z,19.83
2018-01-13T07:04:02.373Z,23.03
2018-01-13T07:06:29.921Z,24.40
2018-01-13T07:08:57.566Z,25.00
2018-01-13T07:11:25.141Z,19.83
2018-01-13T07:13:52.690Z,23.43
2018-01-13T07:16:20.219Z,23.50
2018-01-13T07:18:47.918Z,23.70
2018-01-13T07:21:15.488Z,24.30
2018-01-13T07:23:43.053Z,22.77
2018-01-13T07:26:10.613Z,23.67
2018-01-13T07:28:38.134Z,23.17
2018-01-13T07:31:06.451Z,23.45
2018-01-13T07:33:33.973Z,24.60
2018-01-13T07:36:02.277Z,22.60
2018-01-13T07:38:29.796Z,22.47
2018-01-13T07:40:57.333Z,21.97
2018-01-13T07:43:24.857Z,21.15
2018-01-13T07:45:52.441Z,21.35
2018-01-13T07:48:19.953Z,21.20
2018-01-13T07:50:48.245Z,22.87
2018-01-13T07:53:16.551Z,19.20
2018-01-13T07:55:44.072Z,24.40
2018-01-13T07:58:12.382Z,20.12
2018-01-13T08:00:39.909Z,22.43
2018-01-13T08:03:07.453Z,23.87
2018-01-13T08:05:34.974Z,20.77
2018-01-13T08:08:02.518Z,21.10
2018-01-13T08:10:30.038Z,19.93
2018-01-13T08:12:57.584Z,17.47
2018-01-13T08:15:25.867Z,16.40
2018-01-13T08:17:53.393Z,17.93
2018-01-13T08:20:20.934Z,18.17
2018-01-13T08:22:49.228Z,16.87
2018-01-13T08:25:16.768Z,20.20
2018-01-13T08:27:45.055Z,18.00
2018-01-13T08:30:13.363Z,17.10
2018-01-13T08:32:40.889Z,17.47
2018-01-13T08:35:09.198Z,18.80
2018-01-13T08:37:36.708Z,17.33
2018-01-13T08:40:04.246Z,18.77
2018-01-13T08:42:31.761Z,17.90
2018-01-13T08:44:59.300Z,17.43
2018-01-13T08:47:27.592Z,16.80
2018-01-13T08:49:55.909Z,14.70
2018-01-13T08:52:23.431Z,13.80
2018-01-13T08:54:51.722Z,13.63
2018-01-13T08:57:19.254Z,17.17
2018-01-13T08:59:46.774Z,16.97
2018-01-13T09:02:15.953Z,14.07
2018-01-13T09:04:43.476Z,13.87
2018-01-13T09:07:11.022Z,19.63
2018-01-13T09:09:38.549Z,17.77
2018-01-13T09:12:06.081Z,17.37
2018-01-13T09:14:34.370Z,15.97
2018-01-13T09:17:01.909Z,15.87
2018-01-13T09:19:30.198Z,18.20
2018-01-13T09:21:57.737Z,18.40
2018-01-13T09:24:25.349Z,16.80
2018-01-13T09:26:52.894Z,17.90
2018-01-13T09:29:20.418Z,14.93
2018-01-13T09:31:47.962Z,18.47
2018-01-13T09:34:15.525Z,17.50
2018-01-13T09:36:43.044Z,16.63
2018-01-13T09:39:10.578Z,15.30
2018-01-13T09:41:38.867Z,15.80
2018-01-13T09:44:06.452Z,15.60
2018-01-13T09:46:33.966Z,15.40
2018-01-13T09:49:01.509Z,17.47
2018-01-13T09:51:29.033Z,16.60
2018-01-13T09:53:56.573Z,17.27
2018-01-13T09:56:24.099Z,16.77
2018-01-13T09:58:52.606Z,15.97
2018-01-13T10:01:20.889Z,16.87
2018-01-13T10:03:48.412Z,16.23
2018-01-13T10:06:16.381Z,15.27
2018-01-13T10:08:43.897Z,15.53
2018-01-13T10:11:11.428Z,16.43
2018-01-13T10:13:39.717Z,14.97
2018-01-13T10:16:07.278Z,13.97
2018-01-13T10:18:35.561Z,15.50
2018-01-13T10:21:03.140Z,16.87
2018-01-13T10:23:30.657Z,16.30
2018-01-13T10:25:58.198Z,15.97
2018-01-13T10:28:25.718Z,15.90
2018-01-13T10:30:53.238Z,15.43
2018-01-13T10:33:20.777Z,15.90
2018-01-13T10:35:48.301Z,16.80
2018-01-13T10:38:16.676Z,14.27
2018-01-13T10:40:44.188Z,14.67
2018-01-13T10:43:11.730Z,15.70
2018-01-13T10:45:39.250Z,15.23
2018-01-13T10:48:07.556Z,14.30
2018-01-13T10:50:35.073Z,15.03
2018-01-13T10:53:03.394Z,16.53
2018-01-13T10:55:30.913Z,16.10
2018-01-13T10:57:59.197Z,15.20
2018-01-13T11:00:26.737Z,14.37
2018-01-13T11:02:54.255Z,16.63
2018-01-13T11:05:21.788Z,15.40
2018-01-13T11:07:50.132Z,17.10
2018-01-13T11:10:17.674Z,14.93
2018-01-13T11:12:45.201Z,16.30
2018-01-13T11:15:12.739Z,16.93
2018-01-13T11:17:41.021Z,17.07
2018-01-13T11:20:09.342Z,17.27
2018-01-13T11:22:36.861Z,17.70
2018-01-13T11:25:05.146Z,15.33
2018-01-13T11:27:32.685Z,17.90
2018-01-13T11:30:00.309Z,18.63
2018-01-13T11:32:28.665Z,17.47
2018-01-13T11:34:56.180Z,16.67
2018-01-13T11:37:23.712Z,15.63
2018-01-13T11:39:51.235Z,14.97
2018-01-13T11:42:18.770Z,16.40
2018-01-13T11:44:46.293Z,17.37
2018-01-13T11:47:23.772Z,17.00
2018-01-13T11:49:51.292Z,18.93
2018-01-13T11:52:18.834Z,17.00
2018-01-13T11:54:46.357Z,17.97
2018-01-13T11:57:13.869Z,16.60
2018-01-13T11:59:41.406Z,17.90
2018-01-13T12:02:08.921Z,16.60
2018-01-13T12:04:36.458Z,16.90
2018-01-13T12:07:04.746Z,17.20
2018-01-13T12:09:33.058Z,15.60
2018-01-13T12:12:00.725Z,16.80
2018-01-13T12:14:28.264Z,18.33
2018-01-13T12:16:55.785Z,17.73
2018-01-13T12:19:23.322Z,17.10
2018-01-13T12:21:50.842Z,15.33
2018-01-13T12:24:18.382Z,16.57
2018-01-13T12:26:46.672Z,14.83
2018-01-13T12:29:14.254Z,15.57
2018-01-13T12:31:41.774Z,15.97
2018-01-13T12:34:09.293Z,14.63
2018-01-13T12:36:36.830Z,15.60
2018-01-13T12:39:04.345Z,14.97
2018-01-13T12:41:32.652Z,15.30
2018-01-13T12:44:00.932Z,13.77
2018-01-13T12:46:29.245Z,15.17
2018-01-13T12:48:56.763Z,14.53
2018-01-13T12:51:25.081Z,14.80
2018-01-13T12:53:52.641Z,14.90
2018-01-13T12:56:20.182Z,12.83
2018-01-13T12:58:47.705Z,14.27
2018-01-13T13:01:15.237Z,15.77
2018-01-13T13:03:42.753Z,13.43
2018-01-13T13:06:11.062Z,14.00
2018-01-13T13:08:38.577Z,14.60
2018-01-13T13:11:06.896Z,13.60
2018-01-13T13:13:34.414Z,13.10
2018-01-13T13:16:02.711Z,14.93
2018-01-13T13:18:31.018Z,11.57
2018-01-13T13:20:58.532Z,12.73
2018-01-13T13:23:26.836Z,12.50
2018-01-13T13:25:54.361Z,13.43
2018-01-13T13:28:21.893Z,12.67
2018-01-13T13:30:49.418Z,13.57
2018-01-13T13:33:17.006Z,11.50
2018-01-13T13:35:44.531Z,12.60
2018-01-13T13:38:12.074Z,11.50
2018-01-13T13:40:39.593Z,15.30
2018-01-13T13:43:07.124Z,12.77
2018-01-13T13:45:34.645Z,13.60
2018-01-13T13:48:02.189Z,13.73
2018-01-13T13:50:29.714Z,13.27
2018-01-13T13:52:57.286Z,13.83
2018-01-13T13:55:24.809Z,12.83
2018-01-13T13:57:53.126Z,14.18
2018-01-13T14:00:20.652Z,14.77
2018-01-13T14:02:48.957Z,14.00
2018-01-13T14:05:16.485Z,15.40
2018-01-13T14:07:44.770Z,14.80
2018-01-13T14:10:13.074Z,15.13
2018-01-13T14:12:40.591Z,12.73
2018-01-13T14:15:08.128Z,13.33
2018-01-13T14:17:35.657Z,13.50
2018-01-13T14:20:03.199Z,12.60
2018-01-13T14:22:31.485Z,12.07
2018-01-13T14:24:59.989Z,14.70
2018-01-13T14:27:27.506Z,12.50
2018-01-13T14:29:55.823Z,12.00
2018-01-13T14:32:23.361Z,12.67
2018-01-13T14:34:50.900Z,15.17
2018-01-13T14:37:19.237Z,14.82
2018-01-13T14:39:46.761Z,13.02
2018-01-13T14:42:14.448Z,12.10
2018-01-13T14:44:41.973Z,13.93
2018-01-13T14:47:10.273Z,13.87
2018-01-13T14:49:37.802Z,13.45
2018-01-13T14:52:05.341Z,12.73
2018-01-13T14:54:32.867Z,13.43
2018-01-13T14:57:00.409Z,12.00
2018-01-13T14:59:27.996Z,13.50
2018-01-13T15:01:55.540Z,12.48
2018-01-13T15:04:23.057Z,12.30
2018-01-13T15:06:50.597Z,12.80
2018-01-13T15:09:18.132Z,12.93
2018-01-13T15:11:45.681Z,11.30
2018-01-13T15:14:13.209Z,12.80
2018-01-13T15:16:40.831Z,15.03
2018-01-13T15:19:08.393Z,12.40
2018-01-13T15:21:35.921Z,12.15
2018-01-13T15:24:03.466Z,13.82
2018-01-13T15:26:31.764Z,11.30
2018-01-13T15:28:59.304Z,12.13
2018-01-13T15:31:27.605Z,12.35
2018-01-13T15:33:55.152Z,12.00
2018-01-13T15:36:23.436Z,11.90
2018-01-13T15:38:50.976Z,12.20
2018-01-13T15:41:26.265Z,12.88
2018-01-13T15:43:53.814Z,14.05
2018-01-13T15:46:21.342Z,13.07
2018-01-13T15:48:49.664Z,12.10
2018-01-13T15:51:17.189Z,12.82
2018-01-13T15:53:45.492Z,12.73
2018-01-13T15:56:13.019Z,11.12
2018-01-13T15:58:41.304Z,14.00
2018-01-13T16:01:09.605Z,12.30
2018-01-13T16:03:37.129Z,13.02
2018-01-13T16:06:05.445Z,13.48
2018-01-13T16:08:33.012Z,13.57
2018-01-13T16:11:00.562Z,12.63
2018-01-13T16:13:28.136Z,12.82
2018-01-13T16:15:55.701Z,14.77
2018-01-13T16:18:23.270Z,11.70
2018-01-13T16:20:50.859Z,14.43
2018-01-13T16:23:18.386Z,16.40
2018-01-13T16:25:45.991Z,14.48
2018-01-13T16:28:13.516Z,13.52
2018-01-13T16:30:41.106Z,14.85
2018-01-13T16:33:08.631Z,14.60
2018-01-13T16:35:36.149Z,15.43
2018-01-13T16:38:04.503Z,13.62
2018-01-13T16:40:32.070Z,15.80
2018-01-13T16:42:59.613Z,16.60
2018-01-13T16:45:27.144Z,15.57
2018-01-13T16:47:54.698Z,14.80
2018-01-13T16:50:22.221Z,16.93
2018-01-13T16:52:49.790Z,14.00
2018-01-13T16:55:18.082Z,13.87
2018-01-13T16:57:46.397Z,14.65
2018-01-13T17:00:13.922Z,12.70
2018-01-13T17:02:41.509Z,13.23
2018-01-13T17:05:09.071Z,14.48
2018-01-13T17:07:36.623Z,13.93
2018-01-13T17:10:04.193Z,13.23
2018-01-13T17:12:31.767Z,12.10
2018-01-13T17:14:59.317Z,12.68
2018-01-13T17:17:26.841Z,13.02
2018-01-13T17:19:55.195Z,14.73
2018-01-13T17:22:22.721Z,12.57
2018-01-13T17:24:50.260Z,13.30
2018-01-13T17:27:17.796Z,13.70
2018-01-13T17:29:46.102Z,13.70
2018-01-13T17:32:13.626Z,13.23
2018-01-13T17:34:41.292Z,14.60
2018-01-13T17:37:09.625Z,13.50
2018-01-13T17:39:37.170Z,12.48
2018-01-13T17:42:04.755Z,13.82
2018-01-13T17:44:32.281Z,14.68
2018-01-13T17:46:59.874Z,14.57
2018-01-13T17:49:27.445Z,12.30
2018-01-13T17:51:55.036Z,15.70
2018-01-13T17:54:22.562Z,14.07
2018-01-13T17:56:50.152Z,14.40
2018-01-13T17:59:17.817Z,12.35
2018-01-13T18:01:45.357Z,13.23
2018-01-13T18:04:12.934Z,12.45
2018-01-13T18:06:40.525Z,14.68
2018-01-13T18:09:08.864Z,13.68
2018-01-13T18:11:36.576Z,13.05
2018-01-13T18:14:04.889Z,14.32
2018-01-13T18:16:32.450Z,12.20
2018-01-13T18:18:59.990Z,13.35
2018-01-13T18:21:27.554Z,14.57
2018-01-13T18:23:55.153Z,14.18
2018-01-13T18:26:22.669Z,14.00
2018-01-13T18:28:50.251Z,12.82
2018-01-13T18:31:17.772Z,11.88
2018-01-13T18:33:46.081Z,12.15
2018-01-13T18:36:13.648Z,13.23
2018-01-13T18:38:41.193Z,13.05
2018-01-13T18:41:08.720Z,13.43
2018-01-13T18:43:36.270Z,13.38
2018-01-13T18:46:03.790Z,13.73
2018-01-13T18:48:31.333Z,11.07
2018-01-13T18:50:58.895Z,13.68
2018-01-13T18:53:26.422Z,12.80
2018-01-13T18:55:53.961Z,13.05
2018-01-13T18:58:21.524Z,13.20
2018-01-13T19:00:49.165Z,12.07
2018-01-13T19:03:16.692Z,12.32
2018-01-13T19:05:45.005Z,12.13
2018-01-13T19:08:12.526Z,12.70
2018-01-13T19:10:40.870Z,13.93
2018-01-13T19:13:08.450Z,13.02
2018-01-13T19:15:36.043Z,12.73
2018-01-13T19:18:03.570Z,12.00
2018-01-13T19:20:31.145Z,12.70
2018-01-13T19:22:59.449Z,12.82
2018-01-13T19:25:27.028Z,14.82
2018-01-13T19:27:54.573Z,12.57
2018-01-13T19:30:22.154Z,13.68
2018-01-13T19:32:49.700Z,13.40
2018-01-13T19:35:17.276Z,13.52
2018-01-13T19:37:44.865Z,13.50
2018-01-13T19:40:12.435Z,14.07
2018-01-13T19:42:40.103Z,13.77
2018-01-13T19:45:07.688Z,14.38
2018-01-13T19:47:36.038Z,14.75
2018-01-13T19:50:03.602Z,13.27
2018-01-13T19:52:32.088Z,13.15
2018-01-13T19:54:59.654Z,14.25
2018-01-13T19:57:27.249Z,13.00
2018-01-13T19:59:54.829Z,13.27
2018-01-13T20:02:22.424Z,13.88
2018-01-13T20:04:49.970Z,13.50
2018-01-13T20:07:17.565Z,12.23
2018-01-13T20:09:45.927Z,13.45
2018-01-13T20:12:14.985Z,12.32
2018-01-13T20:14:42.600Z,14.32
2018-01-13T20:17:10.113Z,11.90
2018-01-13T20:19:37.709Z,13.82
2018-01-13T20:22:05.290Z,13.65
2018-01-13T20:24:33.658Z,13.80
2018-01-13T20:27:01.239Z,12.75
2018-01-13T20:29:29.605Z,13.02
2018-01-13T20:31:57.180Z,12.68
2018-01-13T20:34:25.488Z,13.23
2018-01-13T20:36:53.059Z,13.62
2018-01-13T20:39:20.612Z,13.25
2018-01-13T20:41:48.188Z,13.85
2018-01-13T20:44:15.760Z,12.57
2018-01-13T20:46:43.452Z,13.82
2018-01-13T20:49:11.793Z,13.38
2018-01-13T20:51:39.384Z,13.77
2018-01-13T20:54:07.060Z,14.23
2018-01-13T20:56:35.425Z,15.27
2018-01-13T20:59:03.091Z,14.40
2018-01-13T21:01:30.696Z,14.60
2018-01-13T21:03:58.272Z,13.55
2018-01-13T21:06:25.864Z,14.70
2018-01-13T21:08:53.386Z,15.38
2018-01-13T21:11:21.136Z,14.35
2018-01-13T21:13:48.708Z,13.95
2018-01-13T21:16:16.233Z,16.23
2018-01-13T21:18:44.595Z,14.25
2018-01-13T21:21:12.170Z,16.37
2018-01-13T21:23:39.752Z,14.75
2018-01-13T21:26:07.389Z,15.75
2018-01-13T21:28:34.962Z,17.37
2018-01-13T21:31:03.353Z,13.40
2018-01-13T21:33:31.709Z,14.25
2018-01-13T21:35:59.368Z,14.95
2018-01-13T21:38:26.913Z,14.45
2018-01-13T21:40:54.484Z,14.15
2018-01-13T21:43:22.025Z,14.82
2018-01-13T21:45:49.593Z,16.50
2018-01-13T21:48:17.380Z,14.75
2018-01-13T21:50:44.947Z,13.90
2018-01-13T21:53:12.526Z,14.38
2018-01-13T21:55:40.876Z,13.73
2018-01-13T21:58:08.449Z,14.27
2018-01-13T22:00:36.807Z,12.60
2018-01-13T22:03:04.381Z,12.65
2018-01-13T22:05:31.963Z,12.70
2018-01-13T22:08:00.301Z,11.75
2018-01-13T22:10:27.940Z,11.93
2018-01-13T22:12:55.510Z,13.70
2018-01-13T22:15:23.102Z,11.75
2018-01-13T22:17:50.677Z,12.45
2018-01-13T22:20:18.264Z,12.23
2018-01-13T22:22:45.897Z,12.52
2018-01-13T22:25:13.434Z,12.37
2018-01-13T22:27:40.995Z,12.32
2018-01-13T22:30:08.532Z,12.70
2018-01-13T22:32:36.049Z,11.18
2018-01-13T22:35:04.406Z,12.82
2018-01-13T22:37:31.923Z,12.65
2018-01-13T22:39:59.441Z,14.50
2018-01-13T22:42:27.790Z,11.15
2018-01-13T22:44:55.359Z,11.73
2018-01-13T22:47:22.940Z,12.13
2018-01-13T22:49:50.457Z,13.52
2018-01-13T22:52:18.045Z,12.43
2018-01-13T22:54:45.606Z,12.80
2018-01-13T22:57:13.138Z,13.95
2018-01-13T22:59:40.698Z,11.45
2018-01-13T23:02:08.288Z,12.52
2018-01-13T23:04:35.852Z,13.05
2018-01-13T23:07:03.443Z,11.52
2018-01-13T23:09:31.799Z,13.15
2018-01-13T23:11:59.337Z,14.43
2018-01-13T23:14:26.900Z,13.62
2018-01-13T23:16:54.605Z,15.00
2018-01-13T23:19:22.885Z,15.32
2018-01-13T23:21:51.207Z,15.30
2018-01-13T23:24:18.773Z,15.07
2018-01-13T23:26:46.328Z,14.90
2018-01-13T23:29:13.870Z,15.95
2018-01-13T23:31:41.440Z,14.43
2018-01-13T23:34:08.979Z,16.25
2018-01-13T23:36:36.502Z,15.05
2018-01-13T23:39:04.080Z,17.00
2018-01-13T23:41:32.366Z,16.33
2018-01-13T23:44:00.671Z,16.10
2018-01-13T23:46:28.195Z,15.65
2018-01-13T23:48:56.502Z,16.85
2018-01-13T23:51:24.059Z,16.95
2018-01-13T23:53:51.635Z,17.17
2018-01-13T23:56:19.150Z,16.70
2018-01-13T23:58:46.692Z,16.05
